sensor_id;sensor_type;location;lat;lon;timestamp;pressure;altitude;pressure_sealevel;temperature;humidity
3796;BME280;1913;50.660;7.834;2023-10-19T00:00:39;61283.88;;;-145.51;100.00
3796;BME280;1913;50.660;7.834;2023-10-19T00:03:10;61283.88;;;-145.51;100.00
3796;BME280;1913;50.660;7.834;2023-10-19T00:05:37;61283.88;;;-145.51;100.00
3796;BME280;1913;50.660;7.834;2023-10-19T00:08:04;61283.88;;;-145.51;100.00
3796;BME280;1913;50.660;7.834;2023-10-19T00:10:40;61283.88;;;-145.51;100.00
3796;BME280;1913;50.660;7.834;2023-10-19T00:13:08;61283.88;;;-145.51;100.00
3796;BME280;1913;50.660;7.834;2023-10-19T00:15:35;61283.88;;;-145.51;100.00
3796;BME280;1913;50.660;7.834;2023-10-19T00:18:05;61283.88;;;-145.51;100.00
3796;BME280;1913;50.660;7.834;2023-10-19T00:20:47;61283.88;;;-145.51;100.00
3796;BME280;1913;50.660;7.834;2023-10-19T00:23:13;61283.88;;;-145.51;100.00
3796;BME280;1913;50.660;7.834;2023-10-19T00:25:39;61283.88;;;-145.51;100.00
3796;BME280;1913;50.660;7.834;2023-10-19T00:28:07;61283.88;;;-145.51;100.00
3796;BME280;1913;50.660;7.834;2023-10-19T00:30:33;61283.88;;;-145.51;100.00
3796;BME280;1913;50.660;7.834;2023-10-19T00:33:03;61283.88;;;-145.51;100.00
3796;BME280;1913;50.660;7.834;2023-10-19T00:35:38;61283.88;;;-145.51;100.00
3796;BME280;1913;50.660;7.834;2023-10-19T00:38:13;61283.88;;;-145.51;100.00
3796;BME280;1913;50.660;7.834;2023-10-19T00:40:57;61283.88;;;-145.51;100.00
3796;BME280;1913;50.660;7.834;2023-10-19T00:43:32;61283.88;;;-145.51;100.00
3796;BME280;1913;50.660;7.834;2023-10-19T00:46:00;61283.88;;;-145.51;100.00
3796;BME280;1913;50.660;7.834;2023-10-19T00:48:28;61283.88;;;-145.51;100.00
3796;BME280;1913;50.660;7.834;2023-10-19T00:50:54;61283.88;;;-145.51;100.00
3796;BME280;1913;50.660;7.834;2023-10-19T00:53:34;61283.88;;;-145.51;100.00
3796;BME280;1913;50.660;7.834;2023-10-19T00:56:01;61283.88;;;-145.51;100.00
3796;BME280;1913;50.660;7.834;2023-10-19T00:58:28;61283.88;;;-145.51;100.00
3796;BME280;1913;50.660;7.834;2023-10-19T01:00:55;61283.88;;;-145.51;100.00
3796;BME280;1913;50.660;7.834;2023-10-19T01:03:21;61283.88;;;-145.51;100.00
3796;BME280;1913;50.660;7.834;2023-10-19T01:05:46;61283.88;;;-145.51;100.00
3796;BME280;1913;50.660;7.834;2023-10-19T01:08:15;61283.88;;;-145.51;100.00
3796;BME280;1913;50.660;7.834;2023-10-19T01:10:55;61283.88;;;-145.51;100.00
3796;BME280;1913;50.660;7.834;2023-10-19T01:13:22;61283.88;;;-145.51;100.00
3796;BME280;1913;50.660;7.834;2023-10-19T01:15:53;61283.88;;;-145.51;100.00
3796;BME280;1913;50.660;7.834;2023-10-19T01:18:18;61283.88;;;-145.51;100.00
3796;BME280;1913;50.660;7.834;2023-10-19T01:20:44;61283.88;;;-145.51;100.00
3796;BME280;1913;50.660;7.834;2023-10-19T01:23:20;61283.88;;;-145.51;100.00
3796;BME280;1913;50.660;7.834;2023-10-19T01:25:57;61283.88;;;-145.51;100.00
3796;BME280;1913;50.660;7.834;2023-10-19T01:28:24;61283.88;;;-145.51;100.00
3796;BME280;1913;50.660;7.834;2023-10-19T01:31:14;61283.88;;;-145.51;100.00
3796;BME280;1913;50.660;7.834;2023-10-19T01:33:41;61283.88;;;-145.51;100.00
3796;BME280;1913;50.660;7.834;2023-10-19T01:36:08;61283.88;;;-145.51;100.00
3796;BME280;1913;50.660;7.834;2023-10-19T01:38:36;61283.88;;;-145.51;100.00
3796;BME280;1913;50.660;7.834;2023-10-19T01:41:04;61283.88;;;-145.51;100.00
3796;BME280;1913;50.660;7.834;2023-10-19T01:43:42;61283.88;;;-145.51;100.00
3796;BME280;1913;50.660;7.834;2023-10-19T01:46:09;61283.88;;;-145.51;100.00
3796;BME280;1913;50.660;7.834;2023-10-19T01:48:42;61283.88;;;-145.51;100.00
3796;BME280;1913;50.660;7.834;2023-10-19T01:51:10;61283.88;;;-145.51;100.00
3796;BME280;1913;50.660;7.834;2023-10-19T01:53:37;61283.88;;;-145.51;100.00
3796;BME280;1913;50.660;7.834;2023-10-19T01:56:09;61283.88;;;-145.51;100.00
3796;BME280;1913;50.660;7.834;2023-10-19T01:58:38;61283.88;;;-145.51;100.00
3796;BME280;1913;50.660;7.834;2023-10-19T02:01:08;61283.88;;;-145.51;100.00
3796;BME280;1913;50.660;7.834;2023-10-19T02:03:59;61283.88;;;-145.51;100.00
3796;BME280;1913;50.660;7.834;2023-10-19T02:06:26;61283.88;;;-145.51;100.00
3796;BME280;1913;50.660;7.834;2023-10-19T02:09:12;61283.88;;;-145.51;100.00
3796;BME280;1913;50.660;7.834;2023-10-19T02:11:43;61283.88;;;-145.51;100.00
3796;BME280;1913;50.660;7.834;2023-10-19T02:14:11;61283.88;;;-145.51;100.00
3796;BME280;1913;50.660;7.834;2023-10-19T02:16:43;61283.88;;;-145.51;100.00
3796;BME280;1913;50.660;7.834;2023-10-19T02:19:09;61283.88;;;-145.51;100.00
3796;BME280;1913;50.660;7.834;2023-10-19T02:21:35;61283.88;;;-145.51;100.00
3796;BME280;1913;50.660;7.834;2023-10-19T02:24:06;61283.88;;;-145.51;100.00
3796;BME280;1913;50.660;7.834;2023-10-19T02:26:33;61283.88;;;-145.51;100.00
3796;BME280;1913;50.660;7.834;2023-10-19T02:28:58;61283.88;;;-145.51;100.00
3796;BME280;1913;50.660;7.834;2023-10-19T02:31:25;61283.88;;;-145.51;100.00
3796;BME280;1913;50.660;7.834;2023-10-19T02:33:52;61283.88;;;-145.51;100.00
3796;BME280;1913;50.660;7.834;2023-10-19T02:36:24;61283.88;;;-145.51;100.00
3796;BME280;1913;50.660;7.834;2023-10-19T02:38:54;61283.88;;;-145.51;100.00
3796;BME280;1913;50.660;7.834;2023-10-19T02:41:20;61283.88;;;-145.51;100.00
3796;BME280;1913;50.660;7.834;2023-10-19T02:43:46;61283.88;;;-145.51;100.00
3796;BME280;1913;50.660;7.834;2023-10-19T02:46:15;61283.88;;;-145.51;100.00
3796;BME280;1913;50.660;7.834;2023-10-19T02:48:43;61283.88;;;-145.51;100.00
3796;BME280;1913;50.660;7.834;2023-10-19T02:51:15;61283.88;;;-145.51;100.00
3796;BME280;1913;50.660;7.834;2023-10-19T02:53:40;61283.88;;;-145.51;100.00
3796;BME280;1913;50.660;7.834;2023-10-19T02:56:13;61283.88;;;-145.51;100.00
3796;BME280;1913;50.660;7.834;2023-10-19T02:58:42;61283.88;;;-145.51;100.00
3796;BME280;1913;50.660;7.834;2023-10-19T03:01:15;61283.88;;;-145.51;100.00
3796;BME280;1913;50.660;7.834;2023-10-19T03:03:44;61283.88;;;-145.51;100.00
3796;BME280;1913;50.660;7.834;2023-10-19T03:06:11;61283.88;;;-145.51;100.00
3796;BME280;1913;50.660;7.834;2023-10-19T03:08:36;61283.88;;;-145.51;100.00
3796;BME280;1913;50.660;7.834;2023-10-19T03:11:02;61283.88;;;-145.51;100.00
3796;BME280;1913;50.660;7.834;2023-10-19T03:13:30;61283.88;;;-145.51;100.00
3796;BME280;1913;50.660;7.834;2023-10-19T03:15:58;61283.88;;;-145.51;100.00
3796;BME280;1913;50.660;7.834;2023-10-19T03:18:26;61283.88;;;-145.51;100.00
3796;BME280;1913;50.660;7.834;2023-10-19T03:20:51;61283.88;;;-145.51;100.00
3796;BME280;1913;50.660;7.834;2023-10-19T03:23:17;61283.88;;;-145.51;100.00
3796;BME280;1913;50.660;7.834;2023-10-19T03:25:42;61283.88;;;-145.51;100.00
3796;BME280;1913;50.660;7.834;2023-10-19T03:28:26;61283.88;;;-145.51;100.00
3796;BME280;1913;50.660;7.834;2023-10-19T03:30:52;61283.88;;;-145.51;100.00
3796;BME280;1913;50.660;7.834;2023-10-19T03:33:20;61283.88;;;-145.51;100.00
3796;BME280;1913;50.660;7.834;2023-10-19T03:35:45;61283.88;;;-145.51;100.00
3796;BME280;1913;50.660;7.834;2023-10-19T03:38:11;61283.88;;;-145.51;100.00
3796;BME280;1913;50.660;7.834;2023-10-19T03:40:41;61283.88;;;-145.51;100.00
3796;BME280;1913;50.660;7.834;2023-10-19T03:43:11;61283.88;;;-145.51;100.00
3796;BME280;1913;50.660;7.834;2023-10-19T03:45:47;61283.88;;;-145.51;100.00
3796;BME280;1913;50.660;7.834;2023-10-19T03:48:19;61283.88;;;-145.51;100.00
3796;BME280;1913;50.660;7.834;2023-10-19T03:50:59;61283.88;;;-145.51;100.00
3796;BME280;1913;50.660;7.834;2023-10-19T03:53:30;61283.88;;;-145.51;100.00
3796;BME280;1913;50.660;7.834;2023-10-19T03:55:57;61283.88;;;-145.51;100.00
3796;BME280;1913;50.660;7.834;2023-10-19T03:58:22;61283.88;;;-145.51;100.00
3796;BME280;1913;50.660;7.834;2023-10-19T04:00:48;61283.88;;;-145.51;100.00
3796;BME280;1913;50.660;7.834;2023-10-19T04:03:17;61283.88;;;-145.51;100.00
3796;BME280;1913;50.660;7.834;2023-10-19T04:05:43;61283.88;;;-145.51;100.00
3796;BME280;1913;50.660;7.834;2023-10-19T04:08:12;61283.88;;;-145.51;100.00
3796;BME280;1913;50.660;7.834;2023-10-19T04:10:45;61283.88;;;-145.51;100.00
3796;BME280;1913;50.660;7.834;2023-10-19T04:13:30;61283.88;;;-145.51;100.00
3796;BME280;1913;50.660;7.834;2023-10-19T04:15:56;61283.88;;;-145.51;100.00
3796;BME280;1913;50.660;7.834;2023-10-19T04:18:21;61283.88;;;-145.51;100.00
3796;BME280;1913;50.660;7.834;2023-10-19T04:20:50;61283.88;;;-145.51;100.00
3796;BME280;1913;50.660;7.834;2023-10-19T04:23:16;61283.88;;;-145.51;100.00
3796;BME280;1913;50.660;7.834;2023-10-19T04:25:41;61283.88;;;-145.51;100.00
3796;BME280;1913;50.660;7.834;2023-10-19T04:28:07;61283.88;;;-145.51;100.00
3796;BME280;1913;50.660;7.834;2023-10-19T04:30:32;61283.88;;;-145.51;100.00
3796;BME280;1913;50.660;7.834;2023-10-19T04:33:02;61283.88;;;-145.51;100.00
3796;BME280;1913;50.660;7.834;2023-10-19T04:35:28;61283.88;;;-145.51;100.00
3796;BME280;1913;50.660;7.834;2023-10-19T04:37:59;61283.88;;;-145.51;100.00
3796;BME280;1913;50.660;7.834;2023-10-19T04:40:24;61283.88;;;-145.51;100.00
3796;BME280;1913;50.660;7.834;2023-10-19T04:42:51;61283.88;;;-145.51;100.00
3796;BME280;1913;50.660;7.834;2023-10-19T04:45:17;61283.88;;;-145.51;100.00
3796;BME280;1913;50.660;7.834;2023-10-19T04:47:43;61283.88;;;-145.51;100.00
3796;BME280;1913;50.660;7.834;2023-10-19T04:50:08;61283.88;;;-145.51;100.00
3796;BME280;1913;50.660;7.834;2023-10-19T04:52:43;150879.94;;;11.49;100.00
3796;BME280;1913;50.660;7.834;2023-10-19T04:55:09;150846.03;;;11.35;100.00
3796;BME280;1913;50.660;7.834;2023-10-19T04:57:34;150835.94;;;11.31;100.00
3796;BME280;1913;50.660;7.834;2023-10-19T05:00:00;150807.03;;;11.19;100.00
3796;BME280;1913;50.660;7.834;2023-10-19T05:02:25;150819.63;;;11.24;100.00
3796;BME280;1913;50.660;7.834;2023-10-19T05:04:51;150809.53;;;11.20;100.00
3796;BME280;1913;50.660;7.834;2023-10-19T05:07:16;150809.53;;;11.20;100.00
3796;BME280;1913;50.660;7.834;2023-10-19T05:09:42;150807.03;;;11.19;100.00
3796;BME280;1913;50.660;7.834;2023-10-19T05:12:08;150799.47;;;11.16;100.00
3796;BME280;1913;50.660;7.834;2023-10-19T05:14:43;150825.88;;;11.27;100.00
3796;BME280;1913;50.660;7.834;2023-10-19T05:17:10;150833.44;;;11.30;100.00
3796;BME280;1913;50.660;7.834;2023-10-19T05:19:36;150847.28;;;11.36;100.00
3796;BME280;1913;50.660;7.834;2023-10-19T05:22:04;150872.44;;;11.46;100.00
3796;BME280;1913;50.660;7.834;2023-10-19T05:24:29;150878.69;;;11.48;100.00
3796;BME280;1913;50.660;7.834;2023-10-19T05:26:55;150891.28;;;11.54;100.00
3796;BME280;1913;50.660;7.834;2023-10-19T05:29:21;150897.59;;;11.56;100.00
3796;BME280;1913;50.660;7.834;2023-10-19T05:31:47;150901.34;;;11.58;100.00
3796;BME280;1913;50.660;7.834;2023-10-19T05:34:19;150903.84;;;11.59;100.00
3796;BME280;1913;50.660;7.834;2023-10-19T05:36:45;150903.84;;;11.59;100.00
3796;BME280;1913;50.660;7.834;2023-10-19T05:39:14;150908.88;;;11.61;100.00
3796;BME280;1913;50.660;7.834;2023-10-19T05:41:39;150915.19;;;11.63;100.00
3796;BME280;1913;50.660;7.834;2023-10-19T05:44:05;150917.69;;;11.64;100.00
3796;BME280;1913;50.660;7.834;2023-10-19T05:46:30;61283.88;;;-145.51;100.00
3796;BME280;1913;50.660;7.834;2023-10-19T05:48:57;150910.13;;;11.61;100.00
3796;BME280;1913;50.660;7.834;2023-10-19T05:51:23;150915.19;;;11.63;100.00
3796;BME280;1913;50.660;7.834;2023-10-19T05:53:48;150924.00;;;11.67;100.00
3796;BME280;1913;50.660;7.834;2023-10-19T05:56:14;61283.88;;;-145.51;100.00
3796;BME280;1913;50.660;7.834;2023-10-19T05:58:42;61283.88;;;-145.51;100.00
3796;BME280;1913;50.660;7.834;2023-10-19T06:01:07;61283.88;;;-145.51;100.00
3796;BME280;1913;50.660;7.834;2023-10-19T06:03:33;61283.88;;;-145.51;100.00
3796;BME280;1913;50.660;7.834;2023-10-19T06:05:58;61283.88;;;-145.51;100.00
3796;BME280;1913;50.660;7.834;2023-10-19T06:10:52;151062.34;;;12.23;100.00
3796;BME280;1913;50.660;7.834;2023-10-19T06:13:18;151066.16;;;12.25;100.00
3796;BME280;1913;50.660;7.834;2023-10-19T06:15:43;151078.72;;;12.30;100.00
3796;BME280;1913;50.660;7.834;2023-10-19T06:18:09;151095.06;;;12.36;100.00
3796;BME280;1913;50.660;7.834;2023-10-19T06:20:35;151102.63;;;12.39;100.00
3796;BME280;1913;50.660;7.834;2023-10-19T06:23:01;151120.22;;;12.46;100.00
3796;BME280;1913;50.660;7.834;2023-10-19T06:25:30;151130.28;;;12.51;100.00
3796;BME280;1913;50.660;7.834;2023-10-19T06:27:56;151130.28;;;12.51;100.00
3796;BME280;1913;50.660;7.834;2023-10-19T06:30:25;151152.97;;;12.60;100.00
3796;BME280;1913;50.660;7.834;2023-10-19T06:32:52;151163.03;;;12.64;100.00
3796;BME280;1913;50.660;7.834;2023-10-19T06:35:19;151176.84;;;12.69;100.00
3796;BME280;1913;50.660;7.834;2023-10-19T06:37:45;151195.75;;;12.77;100.00
3796;BME280;1913;50.660;7.834;2023-10-19T06:40:12;151190.69;;;12.75;100.00
3796;BME280;1913;50.660;7.834;2023-10-19T06:42:45;151200.75;;;12.79;100.00
3796;BME280;1913;50.660;7.834;2023-10-19T06:45:12;151178.13;;;12.70;100.00
3796;BME280;1913;50.660;7.834;2023-10-19T06:47:46;151195.75;;;12.77;100.00
3796;BME280;1913;50.660;7.834;2023-10-19T06:50:14;151210.81;;;12.83;100.00
3796;BME280;1913;50.660;7.834;2023-10-19T06:52:41;151228.44;;;12.90;100.00
3796;BME280;1913;50.660;7.834;2023-10-19T06:55:08;151229.69;;;12.91;100.00
3796;BME280;1913;50.660;7.834;2023-10-19T06:57:46;151239.81;;;12.95;100.00
3796;BME280;1913;50.660;7.834;2023-10-19T07:00:16;151256.13;;;13.02;100.00
3796;BME280;1913;50.660;7.834;2023-10-19T07:02:49;151238.50;;;12.94;100.00
3796;BME280;1913;50.660;7.834;2023-10-19T07:05:16;151262.44;;;13.04;100.00
3796;BME280;1913;50.660;7.834;2023-10-19T07:07:55;151281.28;;;13.12;100.00
3796;BME280;1913;50.660;7.834;2023-10-19T07:10:22;151251.13;;;13.00;100.00
3796;BME280;1913;50.660;7.834;2023-10-19T07:12:51;151272.50;;;13.08;100.00
3796;BME280;1913;50.660;7.834;2023-10-19T07:15:16;151302.72;;;13.21;100.00
3796;BME280;1913;50.660;7.834;2023-10-19T07:17:48;151308.97;;;13.23;100.00
3796;BME280;1913;50.660;7.834;2023-10-19T07:20:15;151297.66;;;13.18;100.00
3796;BME280;1913;50.660;7.834;2023-10-19T07:23:03;151314.09;;;13.25;100.00
3796;BME280;1913;50.660;7.834;2023-10-19T07:25:35;151336.75;;;13.34;100.00
3796;BME280;1913;50.660;7.834;2023-10-19T07:28:09;151344.28;;;13.37;100.00
3796;BME280;1913;50.660;7.834;2023-10-19T07:30:34;151348.09;;;13.39;100.00
3796;BME280;1913;50.660;7.834;2023-10-19T07:33:00;151351.84;;;13.40;100.00
3796;BME280;1913;50.660;7.834;2023-10-19T07:35:26;151334.22;;;13.33;100.00
3796;BME280;1913;50.660;7.834;2023-10-19T07:37:52;151375.78;;;13.50;100.00
3796;BME280;1913;50.660;7.834;2023-10-19T07:40:18;151359.41;;;13.44;100.00
3796;BME280;1913;50.660;7.834;2023-10-19T07:42:45;151398.47;;;13.59;100.00
3796;BME280;1913;50.660;7.834;2023-10-19T07:45:11;151412.28;;;13.65;100.00
3796;BME280;1913;50.660;7.834;2023-10-19T07:47:40;151428.66;;;13.72;100.00
3796;BME280;1913;50.660;7.834;2023-10-19T07:50:07;151452.59;;;13.81;100.00
3796;BME280;1913;50.660;7.834;2023-10-19T07:52:38;151457.59;;;13.83;100.00
3796;BME280;1913;50.660;7.834;2023-10-19T07:55:05;151484.03;;;13.94;100.00
3796;BME280;1913;50.660;7.834;2023-10-19T07:57:32;151491.63;;;13.97;100.00
3796;BME280;1913;50.660;7.834;2023-10-19T07:59:59;151509.25;;;14.04;100.00
3796;BME280;1913;50.660;7.834;2023-10-19T08:02:24;151526.88;;;14.11;100.00
3796;BME280;1913;50.660;7.834;2023-10-19T08:04:52;151549.56;;;14.21;100.00
3796;BME280;1913;50.660;7.834;2023-10-19T08:07:17;151536.94;;;14.16;100.00
3796;BME280;1913;50.660;7.834;2023-10-19T08:09:43;151567.19;;;14.28;100.00
3796;BME280;1913;50.660;7.834;2023-10-19T08:12:09;151572.22;;;14.30;100.00
3796;BME280;1913;50.660;7.834;2023-10-19T08:14:36;151610.03;;;14.45;100.00
3796;BME280;1913;50.660;7.834;2023-10-19T08:17:01;151623.91;;;14.51;100.00
3796;BME280;1913;50.660;7.834;2023-10-19T08:19:27;151670.56;;;14.70;100.00
3796;BME280;1913;50.660;7.834;2023-10-19T08:21:53;151663.00;;;14.67;100.00
3796;BME280;1913;50.660;7.834;2023-10-19T08:24:18;151747.41;;;15.01;100.00
3796;BME280;1913;50.660;7.834;2023-10-19T08:26:46;151807.91;;;15.25;100.00
3796;BME280;1913;50.660;7.834;2023-10-19T08:29:12;151860.84;;;15.47;100.00
3796;BME280;1913;50.660;7.834;2023-10-19T08:31:41;151912.59;;;15.68;100.00
3796;BME280;1913;50.660;7.834;2023-10-19T08:34:13;151950.44;;;15.83;100.00
3796;BME280;1913;50.660;7.834;2023-10-19T08:36:39;151971.84;;;15.92;100.00
3796;BME280;1913;50.660;7.834;2023-10-19T08:39:08;152024.81;;;16.13;100.00
3796;BME280;1913;50.660;7.834;2023-10-19T08:41:35;152071.47;;;16.32;100.00
3796;BME280;1913;50.660;7.834;2023-10-19T08:44:02;152099.22;;;16.43;100.00
3796;BME280;1913;50.660;7.834;2023-10-19T08:46:28;152137.09;;;16.59;100.00
3796;BME280;1913;50.660;7.834;2023-10-19T08:48:55;152120.69;;;16.52;100.00
3796;BME280;1913;50.660;7.834;2023-10-19T08:51:22;152057.63;;;16.26;100.00
3796;BME280;1913;50.660;7.834;2023-10-19T08:53:53;151990.75;;;15.99;100.00
3796;BME280;1913;50.660;7.834;2023-10-19T08:56:19;151860.84;;;15.47;100.00
3796;BME280;1913;50.660;7.834;2023-10-19T08:58:44;151872.22;;;15.51;100.00
3796;BME280;1913;50.660;7.834;2023-10-19T09:01:11;151845.75;;;15.41;100.00
3796;BME280;1913;50.660;7.834;2023-10-19T09:03:37;151887.31;;;15.57;100.00
3796;BME280;1913;50.660;7.834;2023-10-19T09:06:04;151910.06;;;15.67;100.00
3796;BME280;1913;50.660;7.834;2023-10-19T09:08:31;151984.44;;;15.97;100.00
3796;BME280;1913;50.660;7.834;2023-10-19T09:11:08;152147.19;;;16.63;100.00
3796;BME280;1913;50.660;7.834;2023-10-19T09:13:44;152171.16;;;16.72;100.00
3796;BME280;1913;50.660;7.834;2023-10-19T09:16:14;152129.50;;;16.56;100.00
3796;BME280;1913;50.660;7.834;2023-10-19T09:18:40;152055.06;;;16.25;100.00
3796;BME280;1913;50.660;7.834;2023-10-19T09:21:07;151944.13;;;15.80;100.00
3796;BME280;1913;50.660;7.834;2023-10-19T09:23:34;151904.97;;;15.65;100.00
3796;BME280;1913;50.660;7.834;2023-10-19T09:26:01;151976.91;;;15.94;100.00
3796;BME280;1913;50.660;7.834;2023-10-19T09:28:31;151975.63;;;15.93;100.00
3796;BME280;1913;50.660;7.834;2023-10-19T09:30:59;152115.63;;;16.50;100.00
3796;BME280;1913;50.660;7.834;2023-10-19T09:33:26;152191.38;;;16.81;100.00
3796;BME280;1913;50.660;7.834;2023-10-19T09:35:52;152269.63;;;17.12;100.00
3796;BME280;1913;50.660;7.834;2023-10-19T09:38:19;152214.09;;;16.90;100.00
3796;BME280;1913;50.660;7.834;2023-10-19T09:40:49;152183.81;;;16.78;100.00
3796;BME280;1913;50.660;7.834;2023-10-19T09:43:22;152227.97;;;16.95;100.00
3796;BME280;1913;50.660;7.834;2023-10-19T09:45:51;152231.78;;;16.97;100.00
3796;BME280;1913;50.660;7.834;2023-10-19T09:48:19;152202.72;;;16.85;100.00
3796;BME280;1913;50.660;7.834;2023-10-19T09:50:55;152364.28;;;17.51;100.00
3796;BME280;1913;50.660;7.834;2023-10-19T09:53:24;152448.88;;;17.85;100.00
3796;BME280;1913;50.660;7.834;2023-10-19T09:55:51;152446.38;;;17.84;100.00
3796;BME280;1913;50.660;7.834;2023-10-19T09:58:20;152464.03;;;17.91;100.00
3796;BME280;1913;50.660;7.834;2023-10-19T10:00:48;152604.22;;;18.48;100.00
3796;BME280;1913;50.660;7.834;2023-10-19T10:03:41;152699.00;;;18.86;100.00
3796;BME280;1913;50.660;7.834;2023-10-19T10:06:08;152686.34;;;18.81;100.00
3796;BME280;1913;50.660;7.834;2023-10-19T10:08:35;152724.28;;;18.96;100.00
3796;BME280;1913;50.660;7.834;2023-10-19T10:11:22;152740.66;;;19.03;100.00
3796;BME280;1913;50.660;7.834;2023-10-19T10:13:49;152719.19;;;18.94;100.00
3796;BME280;1913;50.660;7.834;2023-10-19T10:16:23;152868.31;;;19.54;100.00
3796;BME280;1913;50.660;7.834;2023-10-19T10:18:50;152937.88;;;19.82;100.00
3796;BME280;1913;50.660;7.834;2023-10-19T10:21:21;152757.09;;;19.09;100.00
3796;BME280;1913;50.660;7.834;2023-10-19T10:23:51;152662.34;;;18.71;100.00
3796;BME280;1913;50.660;7.834;2023-10-19T10:26:18;152714.13;;;18.92;100.00
3796;BME280;1913;50.660;7.834;2023-10-19T10:28:50;152990.97;;;20.04;100.00
3796;BME280;1913;50.660;7.834;2023-10-19T10:31:35;153169.28;;;20.76;100.00
3796;BME280;1913;50.660;7.834;2023-10-19T10:34:08;153222.41;;;20.97;100.00
3796;BME280;1913;50.660;7.834;2023-10-19T10:36:57;153284.38;;;21.22;100.00
3796;BME280;1913;50.660;7.834;2023-10-19T10:39:25;153138.94;;;20.64;100.00
3796;BME280;1913;50.660;7.834;2023-10-19T10:42:02;153108.56;;;20.51;100.00
3796;BME280;1913;50.660;7.834;2023-10-19T10:44:49;152989.72;;;20.03;100.00
3796;BME280;1913;50.660;7.834;2023-10-19T10:47:19;152979.59;;;19.99;100.00
3796;BME280;1913;50.660;7.834;2023-10-19T10:50:00;152688.84;;;18.82;100.00
3796;BME280;1913;50.660;7.834;2023-10-19T10:55:09;152572.63;;;18.35;100.00
3796;BME280;1913;50.660;7.834;2023-10-19T10:57:40;152563.78;;;18.31;100.00
3796;BME280;1913;50.660;7.834;2023-10-19T11:00:10;152566.34;;;18.32;100.00
3796;BME280;1913;50.660;7.834;2023-10-19T11:02:41;152585.28;;;18.40;100.00
3796;BME280;1913;50.660;7.834;2023-10-19T11:05:11;152530.97;;;18.18;100.00
3796;BME280;1913;50.660;7.834;2023-10-19T11:07:41;152330.19;;;17.37;100.00
3796;BME280;1913;50.660;7.834;2023-10-19T11:10:27;152416.00;;;17.71;100.00
3796;BME280;1913;50.660;7.834;2023-10-19T11:13:02;152402.13;;;17.66;100.00
3796;BME280;1913;50.660;7.834;2023-10-19T11:15:28;152356.69;;;17.47;100.00
3796;BME280;1913;50.660;7.834;2023-10-19T11:17:53;152395.81;;;17.63;100.00
3796;BME280;1913;50.660;7.834;2023-10-19T11:20:23;152364.28;;;17.51;100.00
3796;BME280;1913;50.660;7.834;2023-10-19T11:22:52;152309.97;;;17.29;100.00
3796;BME280;1913;50.660;7.834;2023-10-19T11:27:47;152349.13;;;17.44;100.00
3796;BME280;1913;50.660;7.834;2023-10-19T11:30:13;152330.19;;;17.37;100.00
3796;BME280;1913;50.660;7.834;2023-10-19T11:32:39;152332.72;;;17.38;100.00
3796;BME280;1913;50.660;7.834;2023-10-19T11:35:05;152267.09;;;17.11;100.00
3796;BME280;1913;50.660;7.834;2023-10-19T11:37:49;152216.63;;;16.91;100.00
3796;BME280;1913;50.660;7.834;2023-10-19T11:40:15;152192.63;;;16.81;100.00
3796;BME280;1913;50.660;7.834;2023-10-19T11:42:41;152225.44;;;16.94;100.00
3796;BME280;1913;50.660;7.834;2023-10-19T11:45:06;152317.56;;;17.32;100.00
3796;BME280;1913;50.660;7.834;2023-10-19T11:47:32;152394.56;;;17.63;100.00
3796;BME280;1913;50.660;7.834;2023-10-19T11:49:58;152432.47;;;17.78;100.00
3796;BME280;1913;50.660;7.834;2023-10-19T11:52:23;152527.16;;;18.16;100.00
3796;BME280;1913;50.660;7.834;2023-10-19T11:54:49;152644.59;;;18.64;100.00
3796;BME280;1913;50.660;7.834;2023-10-19T11:57:14;152731.81;;;18.99;100.00
3796;BME280;1913;50.660;7.834;2023-10-19T11:59:39;152819.00;;;19.34;100.00
3796;BME280;1913;50.660;7.834;2023-10-19T12:02:06;152882.19;;;19.60;100.00
3796;BME280;1913;50.660;7.834;2023-10-19T12:04:32;152917.63;;;19.74;100.00
3796;BME280;1913;50.660;7.834;2023-10-19T12:07:01;152893.63;;;19.65;100.00
3796;BME280;1913;50.660;7.834;2023-10-19T12:09:28;152913.84;;;19.73;100.00
3796;BME280;1913;50.660;7.834;2023-10-19T12:11:53;152994.72;;;20.05;100.00
3796;BME280;1913;50.660;7.834;2023-10-19T12:14:19;153100.94;;;20.48;100.00
3796;BME280;1913;50.660;7.834;2023-10-19T12:16:46;153089.56;;;20.44;100.00
3796;BME280;1913;50.660;7.834;2023-10-19T12:19:12;153031.38;;;20.20;100.00
3796;BME280;1913;50.660;7.834;2023-10-19T12:21:39;152920.19;;;19.75;100.00
3796;BME280;1913;50.660;7.834;2023-10-19T12:24:07;152724.28;;;18.96;100.00
3796;BME280;1913;50.660;7.834;2023-10-19T12:26:33;152595.38;;;18.44;100.00
3796;BME280;1913;50.660;7.834;2023-10-19T12:28:58;152491.81;;;18.02;100.00
3796;BME280;1913;50.660;7.834;2023-10-19T12:31:24;152504.47;;;18.07;100.00
3796;BME280;1913;50.660;7.834;2023-10-19T12:33:50;152476.66;;;17.96;100.00
3796;BME280;1913;50.660;7.834;2023-10-19T12:36:15;152499.41;;;18.05;100.00
3796;BME280;1913;50.660;7.834;2023-10-19T12:38:56;152448.88;;;17.85;100.00
3796;BME280;1913;50.660;7.834;2023-10-19T12:41:25;152447.63;;;17.84;100.00
3796;BME280;1913;50.660;7.834;2023-10-19T12:43:50;152421.06;;;17.74;100.00
3796;BME280;1913;50.660;7.834;2023-10-19T12:46:23;152369.31;;;17.53;100.00
3796;BME280;1913;50.660;7.834;2023-10-19T12:48:57;152326.38;;;17.35;100.00
3796;BME280;1913;50.660;7.834;2023-10-19T12:51:24;152322.63;;;17.34;100.00
3796;BME280;1913;50.660;7.834;2023-10-19T12:53:50;152282.22;;;17.17;100.00
3796;BME280;1913;50.660;7.834;2023-10-19T12:56:20;152275.94;;;17.15;100.00
3796;BME280;1913;50.660;7.834;2023-10-19T12:58:46;152203.97;;;16.86;100.00
3796;BME280;1913;50.660;7.834;2023-10-19T13:01:13;152182.53;;;16.77;100.00
3796;BME280;1913;50.660;7.834;2023-10-19T13:03:43;152133.28;;;16.57;100.00
3796;BME280;1913;50.660;7.834;2023-10-19T13:06:15;152108.03;;;16.47;100.00
3796;BME280;1913;50.660;7.834;2023-10-19T13:08:41;152096.72;;;16.42;100.00
3796;BME280;1913;50.660;7.834;2023-10-19T13:11:07;152119.44;;;16.51;100.00